sensor_id;sensor_type;location;lat;lon;timestamp;P1;durP1;ratioP1;P2;durP2;ratioP2
82850;SDS011;72609;45.768;4.884;2023-11-18T00:01:34;24.33;;;10.93;;
82850;SDS011;72609;45.768;4.884;2023-11-18T00:04:00;16.70;;;8.73;;
82850;SDS011;72609;45.768;4.884;2023-11-18T00:06:25;21.30;;;9.32;;
82850;SDS011;72609;45.768;4.884;2023-11-18T00:08:51;19.00;;;10.18;;
82850;SDS011;72609;45.768;4.884;2023-11-18T00:11:17;18.02;;;8.55;;
82850;SDS011;72609;45.768;4.884;2023-11-18T00:13:43;15.35;;;8.75;;
82850;SDS011;72609;45.768;4.884;2023-11-18T00:16:09;18.10;;;9.38;;
82850;SDS011;72609;45.768;4.884;2023-11-18T00:18:39;23.05;;;11.27;;
82850;SDS011;72609;45.768;4.884;2023-11-18T00:21:05;22.88;;;11.43;;
82850;SDS011;72609;45.768;4.884;2023-11-18T00:23:31;26.20;;;12.40;;
82850;SDS011;72609;45.768;4.884;2023-11-18T00:25:57;22.13;;;11.02;;
82850;SDS011;72609;45.768;4.884;2023-11-18T00:28:22;19.73;;;12.15;;
82850;SDS011;72609;45.768;4.884;2023-11-18T00:30:48;23.58;;;12.27;;
82850;SDS011;72609;45.768;4.884;2023-11-18T00:33:13;29.80;;;12.02;;
82850;SDS011;72609;45.768;4.884;2023-11-18T00:35:39;28.48;;;12.43;;
82850;SDS011;72609;45.768;4.884;2023-11-18T00:38:05;23.13;;;10.48;;
82850;SDS011;72609;45.768;4.884;2023-11-18T00:40:31;24.23;;;11.30;;
82850;SDS011;72609;45.768;4.884;2023-11-18T00:42:56;20.10;;;11.05;;
82850;SDS011;72609;45.768;4.884;2023-11-18T00:45:22;15.63;;;9.43;;
82850;SDS011;72609;45.768;4.884;2023-11-18T00:48:03;20.92;;;10.88;;
82850;SDS011;72609;45.768;4.884;2023-11-18T00:53:14;21.83;;;10.73;;
82850;SDS011;72609;45.768;4.884;2023-11-18T00:55:40;20.52;;;10.65;;
82850;SDS011;72609;45.768;4.884;2023-11-18T00:58:06;17.58;;;9.73;;
82850;SDS011;72609;45.768;4.884;2023-11-18T01:00:31;21.85;;;10.25;;
82850;SDS011;72609;45.768;4.884;2023-11-18T01:02:57;24.33;;;9.38;;
82850;SDS011;72609;45.768;4.884;2023-11-18T01:05:22;19.70;;;10.48;;
82850;SDS011;72609;45.768;4.884;2023-11-18T01:07:48;18.63;;;9.68;;
82850;SDS011;72609;45.768;4.884;2023-11-18T01:10:14;15.70;;;9.23;;
82850;SDS011;72609;45.768;4.884;2023-11-18T01:12:40;18.02;;;9.30;;
82850;SDS011;72609;45.768;4.884;2023-11-18T01:15:07;18.67;;;9.10;;
82850;SDS011;72609;45.768;4.884;2023-11-18T01:17:35;18.35;;;9.27;;
82850;SDS011;72609;45.768;4.884;2023-11-18T01:20:01;19.92;;;9.70;;
82850;SDS011;72609;45.768;4.884;2023-11-18T01:22:33;18.35;;;8.25;;
82850;SDS011;72609;45.768;4.884;2023-11-18T01:24:59;18.38;;;9.93;;
82850;SDS011;72609;45.768;4.884;2023-11-18T01:27:26;15.95;;;8.85;;
82850;SDS011;72609;45.768;4.884;2023-11-18T01:29:52;19.00;;;9.10;;
82850;SDS011;72609;45.768;4.884;2023-11-18T01:32:18;15.52;;;8.82;;
82850;SDS011;72609;45.768;4.884;2023-11-18T01:34:44;17.02;;;9.95;;
82850;SDS011;72609;45.768;4.884;2023-11-18T01:37:15;16.40;;;9.27;;
82850;SDS011;72609;45.768;4.884;2023-11-18T01:39:43;16.92;;;9.40;;
82850;SDS011;72609;45.768;4.884;2023-11-18T01:42:08;13.88;;;8.52;;
82850;SDS011;72609;45.768;4.884;2023-11-18T01:44:34;12.32;;;7.47;;
82850;SDS011;72609;45.768;4.884;2023-11-18T01:47:01;14.43;;;8.23;;
82850;SDS011;72609;45.768;4.884;2023-11-18T01:49:31;17.50;;;9.15;;
82850;SDS011;72609;45.768;4.884;2023-11-18T01:51:57;16.42;;;8.90;;
82850;SDS011;72609;45.768;4.884;2023-11-18T01:54:26;15.45;;;8.77;;
82850;SDS011;72609;45.768;4.884;2023-11-18T01:56:53;17.80;;;9.50;;
82850;SDS011;72609;45.768;4.884;2023-11-18T01:59:20;16.58;;;9.48;;
82850;SDS011;72609;45.768;4.884;2023-11-18T02:01:46;16.25;;;8.25;;
82850;SDS011;72609;45.768;4.884;2023-11-18T02:04:18;15.85;;;8.85;;
82850;SDS011;72609;45.768;4.884;2023-11-18T02:09:17;17.92;;;8.07;;
82850;SDS011;72609;45.768;4.884;2023-11-18T02:11:46;16.33;;;9.40;;
82850;SDS011;72609;45.768;4.884;2023-11-18T02:14:18;16.83;;;9.27;;
82850;SDS011;72609;45.768;4.884;2023-11-18T02:16:47;13.38;;;8.88;;
82850;SDS011;72609;45.768;4.884;2023-11-18T02:19:21;19.38;;;9.18;;
82850;SDS011;72609;45.768;4.884;2023-11-18T02:21:49;17.60;;;9.60;;
82850;SDS011;72609;45.768;4.884;2023-11-18T02:26:52;17.58;;;8.93;;
82850;SDS011;72609;45.768;4.884;2023-11-18T02:29:18;15.10;;;9.38;;
82850;SDS011;72609;45.768;4.884;2023-11-18T02:31:44;20.10;;;10.68;;
82850;SDS011;72609;45.768;4.884;2023-11-18T02:34:15;16.65;;;9.55;;
82850;SDS011;72609;45.768;4.884;2023-11-18T02:39:31;20.00;;;10.35;;
82850;SDS011;72609;45.768;4.884;2023-11-18T02:41:58;26.60;;;12.18;;
82850;SDS011;72609;45.768;4.884;2023-11-18T02:44:27;24.70;;;11.38;;
82850;SDS011;72609;45.768;4.884;2023-11-18T02:46:57;18.30;;;10.32;;
82850;SDS011;72609;45.768;4.884;2023-11-18T02:49:23;17.25;;;9.68;;
82850;SDS011;72609;45.768;4.884;2023-11-18T02:51:49;22.67;;;9.63;;
82850;SDS011;72609;45.768;4.884;2023-11-18T02:54:15;19.00;;;10.52;;
82850;SDS011;72609;45.768;4.884;2023-11-18T02:56:41;16.42;;;8.88;;
82850;SDS011;72609;45.768;4.884;2023-11-18T02:59:07;14.85;;;9.30;;
82850;SDS011;72609;45.768;4.884;2023-11-18T03:01:33;16.92;;;9.55;;
82850;SDS011;72609;45.768;4.884;2023-11-18T03:04:02;16.35;;;9.45;;
82850;SDS011;72609;45.768;4.884;2023-11-18T03:06:27;16.13;;;8.65;;
82850;SDS011;72609;45.768;4.884;2023-11-18T03:08:53;18.77;;;9.23;;
82850;SDS011;72609;45.768;4.884;2023-11-18T03:11:19;20.20;;;11.25;;
82850;SDS011;72609;45.768;4.884;2023-11-18T03:13:45;15.48;;;10.23;;
82850;SDS011;72609;45.768;4.884;2023-11-18T03:16:11;26.23;;;13.05;;
82850;SDS011;72609;45.768;4.884;2023-11-18T03:21:04;22.65;;;11.60;;
82850;SDS011;72609;45.768;4.884;2023-11-18T03:23:31;22.70;;;11.15;;
82850;SDS011;72609;45.768;4.884;2023-11-18T03:25:58;26.15;;;11.30;;
82850;SDS011;72609;45.768;4.884;2023-11-18T03:28:24;30.05;;;11.57;;
82850;SDS011;72609;45.768;4.884;2023-11-18T03:30:51;26.80;;;12.55;;
82850;SDS011;72609;45.768;4.884;2023-11-18T03:33:17;18.38;;;12.43;;
82850;SDS011;72609;45.768;4.884;2023-11-18T03:35:44;17.85;;;9.82;;
82850;SDS011;72609;45.768;4.884;2023-11-18T03:38:10;24.13;;;11.73;;
82850;SDS011;72609;45.768;4.884;2023-11-18T03:40:36;15.55;;;9.73;;
82850;SDS011;72609;45.768;4.884;2023-11-18T03:43:02;19.33;;;11.10;;
82850;SDS011;72609;45.768;4.884;2023-11-18T03:47:55;17.15;;;9.60;;
82850;SDS011;72609;45.768;4.884;2023-11-18T03:50:21;17.33;;;8.85;;
82850;SDS011;72609;45.768;4.884;2023-11-18T03:52:47;16.90;;;9.40;;
82850;SDS011;72609;45.768;4.884;2023-11-18T03:55:13;14.45;;;8.93;;
82850;SDS011;72609;45.768;4.884;2023-11-18T03:57:39;15.93;;;9.65;;
82850;SDS011;72609;45.768;4.884;2023-11-18T04:00:05;19.33;;;9.80;;
82850;SDS011;72609;45.768;4.884;2023-11-18T04:02:32;14.45;;;8.82;;
82850;SDS011;72609;45.768;4.884;2023-11-18T04:05:00;11.82;;;8.30;;
82850;SDS011;72609;45.768;4.884;2023-11-18T04:07:28;20.08;;;9.10;;
82850;SDS011;72609;45.768;4.884;2023-11-18T04:09:54;16.05;;;9.63;;
82850;SDS011;72609;45.768;4.884;2023-11-18T04:12:20;16.65;;;9.30;;
82850;SDS011;72609;45.768;4.884;2023-11-18T04:14:46;13.73;;;8.65;;
82850;SDS011;72609;45.768;4.884;2023-11-18T04:17:12;14.38;;;9.95;;
82850;SDS011;72609;45.768;4.884;2023-11-18T04:19:38;18.80;;;9.80;;
82850;SDS011;72609;45.768;4.884;2023-11-18T04:22:04;13.20;;;7.55;;
82850;SDS011;72609;45.768;4.884;2023-11-18T04:24:30;12.65;;;8.60;;
82850;SDS011;72609;45.768;4.884;2023-11-18T04:29:54;17.55;;;7.78;;
82850;SDS011;72609;45.768;4.884;2023-11-18T04:32:20;13.60;;;8.25;;
82850;SDS011;72609;45.768;4.884;2023-11-18T04:34:46;18.10;;;8.88;;
82850;SDS011;72609;45.768;4.884;2023-11-18T04:37:14;14.48;;;7.28;;
82850;SDS011;72609;45.768;4.884;2023-11-18T04:39:40;16.17;;;7.80;;
82850;SDS011;72609;45.768;4.884;2023-11-18T04:42:06;14.38;;;7.63;;
82850;SDS011;72609;45.768;4.884;2023-11-18T04:44:32;13.57;;;7.70;;
82850;SDS011;72609;45.768;4.884;2023-11-18T04:46:58;16.90;;;7.47;;
82850;SDS011;72609;45.768;4.884;2023-11-18T04:49:25;13.73;;;7.15;;
82850;SDS011;72609;45.768;4.884;2023-11-18T04:51:51;10.80;;;7.20;;
82850;SDS011;72609;45.768;4.884;2023-11-18T04:54:17;11.73;;;7.60;;
82850;SDS011;72609;45.768;4.884;2023-11-18T04:56:44;13.50;;;7.25;;
82850;SDS011;72609;45.768;4.884;2023-11-18T05:06:28;11.63;;;6.95;;
82850;SDS011;72609;45.768;4.884;2023-11-18T05:08:55;14.43;;;8.85;;
82850;SDS011;72609;45.768;4.884;2023-11-18T05:11:20;13.60;;;7.60;;
82850;SDS011;72609;45.768;4.884;2023-11-18T05:13:46;10.77;;;6.97;;
82850;SDS011;72609;45.768;4.884;2023-11-18T05:16:12;17.50;;;6.57;;
82850;SDS011;72609;45.768;4.884;2023-11-18T05:18:39;15.45;;;7.40;;
82850;SDS011;72609;45.768;4.884;2023-11-18T05:24:09;12.88;;;7.32;;
82850;SDS011;72609;45.768;4.884;2023-11-18T05:26:35;13.60;;;7.40;;
82850;SDS011;72609;45.768;4.884;2023-11-18T05:29:01;12.82;;;7.25;;
82850;SDS011;72609;45.768;4.884;2023-11-18T05:31:27;13.93;;;7.88;;
82850;SDS011;72609;45.768;4.884;2023-11-18T05:36:20;15.05;;;8.63;;
82850;SDS011;72609;45.768;4.884;2023-11-18T05:38:52;12.27;;;7.10;;
82850;SDS011;72609;45.768;4.884;2023-11-18T05:41:19;13.63;;;7.80;;
82850;SDS011;72609;45.768;4.884;2023-11-18T05:43:52;12.88;;;8.05;;
82850;SDS011;72609;45.768;4.884;2023-11-18T05:46:18;10.35;;;6.68;;
82850;SDS011;72609;45.768;4.884;2023-11-18T05:48:49;11.82;;;7.68;;
82850;SDS011;72609;45.768;4.884;2023-11-18T05:51:20;12.07;;;7.63;;
82850;SDS011;72609;45.768;4.884;2023-11-18T05:53:46;12.98;;;7.65;;
82850;SDS011;72609;45.768;4.884;2023-11-18T05:56:13;13.80;;;7.90;;
82850;SDS011;72609;45.768;4.884;2023-11-18T05:58:39;13.10;;;7.07;;
82850;SDS011;72609;45.768;4.884;2023-11-18T06:01:05;15.25;;;7.63;;
82850;SDS011;72609;45.768;4.884;2023-11-18T06:03:36;11.23;;;7.18;;
82850;SDS011;72609;45.768;4.884;2023-11-18T06:06:09;14.30;;;8.60;;
82850;SDS011;72609;45.768;4.884;2023-11-18T06:08:36;16.30;;;7.75;;
82850;SDS011;72609;45.768;4.884;2023-11-18T06:11:06;11.38;;;7.85;;
82850;SDS011;72609;45.768;4.884;2023-11-18T06:13:47;12.75;;;8.05;;
82850;SDS011;72609;45.768;4.884;2023-11-18T06:16:14;11.75;;;6.60;;
82850;SDS011;72609;45.768;4.884;2023-11-18T06:18:44;14.38;;;8.40;;
82850;SDS011;72609;45.768;4.884;2023-11-18T06:21:17;11.18;;;7.05;;
82850;SDS011;72609;45.768;4.884;2023-11-18T06:23:43;12.13;;;8.32;;
82850;SDS011;72609;45.768;4.884;2023-11-18T06:26:10;15.52;;;7.70;;
82850;SDS011;72609;45.768;4.884;2023-11-18T06:28:44;10.70;;;6.72;;
82850;SDS011;72609;45.768;4.884;2023-11-18T06:31:10;9.40;;;7.28;;
82850;SDS011;72609;45.768;4.884;2023-11-18T06:33:40;11.40;;;8.15;;
82850;SDS011;72609;45.768;4.884;2023-11-18T06:36:17;13.25;;;7.55;;
82850;SDS011;72609;45.768;4.884;2023-11-18T06:38:44;14.10;;;8.10;;
82850;SDS011;72609;45.768;4.884;2023-11-18T06:41:10;15.52;;;7.57;;
82850;SDS011;72609;45.768;4.884;2023-11-18T06:43:41;15.52;;;7.18;;
82850;SDS011;72609;45.768;4.884;2023-11-18T06:46:38;13.98;;;6.97;;
82850;SDS011;72609;45.768;4.884;2023-11-18T06:49:04;10.13;;;7.13;;
82850;SDS011;72609;45.768;4.884;2023-11-18T06:51:32;10.38;;;6.47;;
82850;SDS011;72609;45.768;4.884;2023-11-18T06:54:00;11.88;;;6.35;;
82850;SDS011;72609;45.768;4.884;2023-11-18T06:59:01;19.50;;;7.95;;
82850;SDS011;72609;45.768;4.884;2023-11-18T07:01:28;14.07;;;8.02;;
82850;SDS011;72609;45.768;4.884;2023-11-18T07:03:56;14.18;;;6.55;;
82850;SDS011;72609;45.768;4.884;2023-11-18T07:06:22;15.27;;;6.97;;
82850;SDS011;72609;45.768;4.884;2023-11-18T07:08:48;16.58;;;9.07;;
82850;SDS011;72609;45.768;4.884;2023-11-18T07:11:15;15.95;;;7.05;;
82850;SDS011;72609;45.768;4.884;2023-11-18T07:13:42;12.15;;;9.10;;
82850;SDS011;72609;45.768;4.884;2023-11-18T07:16:08;14.23;;;8.27;;
82850;SDS011;72609;45.768;4.884;2023-11-18T07:18:40;13.85;;;7.35;;
82850;SDS011;72609;45.768;4.884;2023-11-18T07:21:09;16.55;;;7.80;;
82850;SDS011;72609;45.768;4.884;2023-11-18T07:23:35;10.88;;;7.15;;
82850;SDS011;72609;45.768;4.884;2023-11-18T07:26:02;12.60;;;8.45;;
82850;SDS011;72609;45.768;4.884;2023-11-18T07:28:31;15.10;;;7.65;;
82850;SDS011;72609;45.768;4.884;2023-11-18T07:30:57;13.52;;;7.05;;
82850;SDS011;72609;45.768;4.884;2023-11-18T07:33:24;9.45;;;5.97;;
82850;SDS011;72609;45.768;4.884;2023-11-18T07:35:51;11.05;;;6.88;;
82850;SDS011;72609;45.768;4.884;2023-11-18T07:38:17;10.32;;;7.32;;
82850;SDS011;72609;45.768;4.884;2023-11-18T07:40:45;13.13;;;6.20;;
82850;SDS011;72609;45.768;4.884;2023-11-18T07:43:11;11.20;;;6.10;;
82850;SDS011;72609;45.768;4.884;2023-11-18T07:45:37;11.45;;;5.95;;
82850;SDS011;72609;45.768;4.884;2023-11-18T07:50:32;10.82;;;5.90;;
82850;SDS011;72609;45.768;4.884;2023-11-18T07:52:58;13.40;;;6.38;;
82850;SDS011;72609;45.768;4.884;2023-11-18T07:55:24;11.50;;;5.35;;
82850;SDS011;72609;45.768;4.884;2023-11-18T07:57:50;8.00;;;6.97;;
82850;SDS011;72609;45.768;4.884;2023-11-18T08:00:17;8.85;;;5.45;;
82850;SDS011;72609;45.768;4.884;2023-11-18T08:02:43;10.73;;;7.25;;
82850;SDS011;72609;45.768;4.884;2023-11-18T08:07:39;7.78;;;4.63;;
82850;SDS011;72609;45.768;4.884;2023-11-18T08:10:05;8.55;;;5.63;;
82850;SDS011;72609;45.768;4.884;2023-11-18T08:12:32;10.13;;;5.18;;
82850;SDS011;72609;45.768;4.884;2023-11-18T08:14:59;7.50;;;5.35;;
82850;SDS011;72609;45.768;4.884;2023-11-18T08:17:25;12.73;;;6.40;;
82850;SDS011;72609;45.768;4.884;2023-11-18T08:19:54;7.45;;;5.40;;
82850;SDS011;72609;45.768;4.884;2023-11-18T08:22:21;8.27;;;6.35;;
82850;SDS011;72609;45.768;4.884;2023-11-18T08:24:48;12.32;;;6.38;;
82850;SDS011;72609;45.768;4.884;2023-11-18T08:27:14;11.10;;;6.28;;
82850;SDS011;72609;45.768;4.884;2023-11-18T08:29:40;11.80;;;5.63;;
82850;SDS011;72609;45.768;4.884;2023-11-18T08:32:06;14.88;;;7.75;;
82850;SDS011;72609;45.768;4.884;2023-11-18T08:34:35;13.00;;;6.60;;
82850;SDS011;72609;45.768;4.884;2023-11-18T08:37:05;8.93;;;5.93;;
82850;SDS011;72609;45.768;4.884;2023-11-18T08:39:31;10.13;;;6.90;;
82850;SDS011;72609;45.768;4.884;2023-11-18T08:41:57;12.70;;;7.85;;
82850;SDS011;72609;45.768;4.884;2023-11-18T08:44:26;10.25;;;6.78;;
82850;SDS011;72609;45.768;4.884;2023-11-18T08:46:52;11.50;;;7.45;;
82850;SDS011;72609;45.768;4.884;2023-11-18T08:49:18;14.55;;;8.50;;
82850;SDS011;72609;45.768;4.884;2023-11-18T08:51:48;9.23;;;6.10;;
82850;SDS011;72609;45.768;4.884;2023-11-18T08:54:17;13.65;;;6.57;;
82850;SDS011;72609;45.768;4.884;2023-11-18T08:57:03;14.82;;;7.47;;
82850;SDS011;72609;45.768;4.884;2023-11-18T08:59:44;12.85;;;7.47;;
82850;SDS011;72609;45.768;4.884;2023-11-18T09:02:10;13.02;;;6.57;;
82850;SDS011;72609;45.768;4.884;2023-11-18T09:04:40;11.07;;;6.78;;
82850;SDS011;72609;45.768;4.884;2023-11-18T09:07:08;11.80;;;7.03;;
82850;SDS011;72609;45.768;4.884;2023-11-18T09:09:35;10.77;;;6.55;;
82850;SDS011;72609;45.768;4.884;2023-11-18T09:12:01;12.55;;;7.20;;
82850;SDS011;72609;45.768;4.884;2023-11-18T09:19:24;10.75;;;7.25;;
82850;SDS011;72609;45.768;4.884;2023-11-18T09:21:50;14.43;;;7.53;;
82850;SDS011;72609;45.768;4.884;2023-11-18T09:24:17;15.40;;;8.20;;
82850;SDS011;72609;45.768;4.884;2023-11-18T09:26:45;13.73;;;8.95;;
82850;SDS011;72609;45.768;4.884;2023-11-18T09:29:15;12.27;;;8.02;;
82850;SDS011;72609;45.768;4.884;2023-11-18T09:31:43;16.40;;;8.32;;
82850;SDS011;72609;45.768;4.884;2023-11-18T09:34:13;14.55;;;8.05;;
82850;SDS011;72609;45.768;4.884;2023-11-18T09:36:40;15.05;;;9.00;;
82850;SDS011;72609;45.768;4.884;2023-11-18T09:39:08;11.77;;;7.95;;
82850;SDS011;72609;45.768;4.884;2023-11-18T09:41:41;12.75;;;7.93;;
82850;SDS011;72609;45.768;4.884;2023-11-18T09:44:07;15.80;;;8.52;;
82850;SDS011;72609;45.768;4.884;2023-11-18T09:46:33;11.90;;;8.05;;
82850;SDS011;72609;45.768;4.884;2023-11-18T09:49:17;14.13;;;7.82;;
82850;SDS011;72609;45.768;4.884;2023-11-18T09:51:50;13.23;;;7.68;;
82850;SDS011;72609;45.768;4.884;2023-11-18T09:54:28;29.08;;;8.63;;
82850;SDS011;72609;45.768;4.884;2023-11-18T09:57:04;16.00;;;8.52;;
82850;SDS011;72609;45.768;4.884;2023-11-18T10:02:10;16.55;;;8.90;;
82850;SDS011;72609;45.768;4.884;2023-11-18T10:04:37;16.05;;;8.77;;
82850;SDS011;72609;45.768;4.884;2023-11-18T10:07:04;18.98;;;8.70;;
82850;SDS011;72609;45.768;4.884;2023-11-18T10:09:32;23.83;;;10.75;;
82850;SDS011;72609;45.768;4.884;2023-11-18T10:12:05;14.82;;;8.75;;
82850;SDS011;72609;45.768;4.884;2023-11-18T10:14:33;17.48;;;8.60;;
82850;SDS011;72609;45.768;4.884;2023-11-18T10:17:03;15.20;;;9.52;;
82850;SDS011;72609;45.768;4.884;2023-11-18T10:22:26;21.30;;;7.50;;
82850;SDS011;72609;45.768;4.884;2023-11-18T10:24:53;13.43;;;7.22;;
82850;SDS011;72609;45.768;4.884;2023-11-18T10:27:28;14.70;;;8.13;;
82850;SDS011;72609;45.768;4.884;2023-11-18T10:30:04;15.13;;;7.97;;
82850;SDS011;72609;45.768;4.884;2023-11-18T10:32:43;11.88;;;7.18;;
82850;SDS011;72609;45.768;4.884;2023-11-18T10:35:11;14.60;;;6.85;;
82850;SDS011;72609;45.768;4.884;2023-11-18T10:37:37;12.52;;;6.82;;
82850;SDS011;72609;45.768;4.884;2023-11-18T10:40:08;9.10;;;6.18;;
82850;SDS011;72609;45.768;4.884;2023-11-18T10:42:34;10.98;;;6.07;;
82850;SDS011;72609;45.768;4.884;2023-11-18T10:45:01;11.50;;;7.10;;
82850;SDS011;72609;45.768;4.884;2023-11-18T10:49:54;10.30;;;5.75;;
82850;SDS011;72609;45.768;4.884;2023-11-18T10:52:24;9.48;;;5.43;;
82850;SDS011;72609;45.768;4.884;2023-11-18T10:55:05;7.90;;;5.25;;
82850;SDS011;72609;45.768;4.884;2023-11-18T10:57:36;9.95;;;5.18;;
82850;SDS011;72609;45.768;4.884;2023-11-18T11:00:07;8.02;;;4.95;;
82850;SDS011;72609;45.768;4.884;2023-11-18T11:02:39;11.43;;;5.57;;
82850;SDS011;72609;45.768;4.884;2023-11-18T11:05:06;10.25;;;6.38;;
82850;SDS011;72609;45.768;4.884;2023-11-18T11:07:32;9.48;;;5.80;;
82850;SDS011;72609;45.768;4.884;2023-11-18T11:09:59;11.60;;;5.57;;
82850;SDS011;72609;45.768;4.884;2023-11-18T11:12:29;8.02;;;4.95;;
82850;SDS011;72609;45.768;4.884;2023-11-18T11:15:13;10.18;;;5.40;;
82850;SDS011;72609;45.768;4.884;2023-11-18T11:17:48;10.65;;;5.25;;
82850;SDS011;72609;45.768;4.884;2023-11-18T11:20:14;12.15;;;7.05;;
82850;SDS011;72609;45.768;4.884;2023-11-18T11:27:56;5.82;;;4.10;;
82850;SDS011;72609;45.768;4.884;2023-11-18T11:30:33;11.25;;;4.63;;
82850;SDS011;72609;45.768;4.884;2023-11-18T11:33:10;8.45;;;4.40;;
82850;SDS011;72609;45.768;4.884;2023-11-18T11:35:41;7.45;;;3.47;;
82850;SDS011;72609;45.768;4.884;2023-11-18T11:38:10;6.47;;;3.55;;
82850;SDS011;72609;45.768;4.884;2023-11-18T11:40:38;7.60;;;3.75;;
82850;SDS011;72609;45.768;4.884;2023-11-18T11:43:07;6.72;;;3.20;;
82850;SDS011;72609;45.768;4.884;2023-11-18T11:45:35;6.00;;;4.00;;
82850;SDS011;72609;45.768;4.884;2023-11-18T11:48:02;9.65;;;5.90;;
82850;SDS011;72609;45.768;4.884;2023-11-18T11:50:40;8.38;;;3.20;;
82850;SDS011;72609;45.768;4.884;2023-11-18T11:53:10;7.15;;;4.53;;
82850;SDS011;72609;45.768;4.884;2023-11-18T11:55:44;6.47;;;2.90;;
82850;SDS011;72609;45.768;4.884;2023-11-18T11:58:30;7.47;;;2.65;;
82850;SDS011;72609;45.768;4.884;2023-11-18T12:03:59;6.47;;;2.83;;
82850;SDS011;72609;45.768;4.884;2023-11-18T12:06:31;5.97;;;3.05;;
82850;SDS011;72609;45.768;4.884;2023-11-18T12:08:57;3.92;;;2.63;;
82850;SDS011;72609;45.768;4.884;2023-11-18T12:11:23;5.38;;;2.83;;
82850;SDS011;72609;45.768;4.884;2023-11-18T12:14:00;3.50;;;2.45;;
82850;SDS011;72609;45.768;4.884;2023-11-18T12:17:07;4.30;;;3.13;;
82850;SDS011;72609;45.768;4.884;2023-11-18T12:19:35;6.50;;;3.33;;
82850;SDS011;72609;45.768;4.884;2023-11-18T12:22:14;4.85;;;2.53;;
82850;SDS011;72609;45.768;4.884;2023-11-18T12:24:45;4.43;;;2.47;;
82850;SDS011;72609;45.768;4.884;2023-11-18T12:27:12;5.63;;;2.35;;
82850;SDS011;72609;45.768;4.884;2023-11-18T12:29:42;6.75;;;2.50;;
82850;SDS011;72609;45.768;4.884;2023-11-18T12:32:09;6.25;;;2.78;;
82850;SDS011;72609;45.768;4.884;2023-11-18T12:34:53;4.85;;;2.70;;
82850;SDS011;72609;45.768;4.884;2023-11-18T12:37:31;4.20;;;2.10;;
82850;SDS011;72609;45.768;4.884;2023-11-18T12:42:49;3.58;;;1.80;;
82850;SDS011;72609;45.768;4.884;2023-11-18T12:47:49;3.55;;;2.00;;
82850;SDS011;72609;45.768;4.884;2023-11-18T12:50:19;12.63;;;2.58;;
82850;SDS011;72609;45.768;4.884;2023-11-18T12:52:52;3.05;;;1.92;;
82850;SDS011;72609;45.768;4.884;2023-11-18T12:55:19;3.03;;;1.70;;
82850;SDS011;72609;45.768;4.884;2023-11-18T12:57:46;5.05;;;2.17;;
82850;SDS011;72609;45.768;4.884;2023-11-18T13:00:13;6.60;;;1.80;;
82850;SDS011;72609;45.768;4.884;2023-11-18T13:02:42;4.15;;;2.97;;
82850;SDS011;72609;45.768;4.884;2023-11-18T13:05:08;7.70;;;2.00;;
82850;SDS011;72609;45.768;4.884;2023-11-18T13:10:01;4.90;;;2.28;;
82850;SDS011;72609;45.768;4.884;2023-11-18T13:12:29;4.35;;;2.35;;
82850;SDS011;72609;45.768;4.884;2023-11-18T13:14:55;4.60;;;2.05;;
82850;SDS011;72609;45.768;4.884;2023-11-18T13:17:22;7.20;;;1.70;;
82850;SDS011;72609;45.768;4.884;2023-11-18T13:19:48;5.72;;;2.05;;
82850;SDS011;72609;45.768;4.884;2023-11-18T13:22:19;4.47;;;3.42;;
82850;SDS011;72609;45.768;4.884;2023-11-18T13:24:45;5.22;;;2.83;;
82850;SDS011;72609;45.768;4.884;2023-11-18T13:27:13;5.18;;;2.97;;
82850;SDS011;72609;45.768;4.884;2023-11-18T13:29:44;4.72;;;2.47;;
82850;SDS011;72609;45.768;4.884;2023-11-18T13:32:12;6.70;;;2.83;;
82850;SDS011;72609;45.768;4.884;2023-11-18T13:34:41;3.30;;;1.73;;
82850;SDS011;72609;45.768;4.884;2023-11-18T13:37:08;3.78;;;1.88;;
82850;SDS011;72609;45.768;4.884;2023-11-18T13:39:35;4.25;;;1.52;;
82850;SDS011;72609;45.768;4.884;2023-11-18T13:42:22;3.53;;;1.55;;
82850;SDS011;72609;45.768;4.884;2023-11-18T13:44:49;4.53;;;1.45;;
82850;SDS011;72609;45.768;4.884;2023-11-18T13:49:41;4.05;;;2.40;;
82850;SDS011;72609;45.768;4.884;2023-11-18T13:52:07;3.78;;;1.80;;
82850;SDS011;72609;45.768;4.884;2023-11-18T13:54:36;8.30;;;2.40;;
82850;SDS011;72609;45.768;4.884;2023-11-18T13:57:03;2.33;;;1.15;;
82850;SDS011;72609;45.768;4.884;2023-11-18T13:59:30;2.63;;;1.38;;
82850;SDS011;72609;45.768;4.884;2023-11-18T14:01:58;2.47;;;1.50;;
82850;SDS011;72609;45.768;4.884;2023-11-18T14:04:27;3.35;;;1.60;;
82850;SDS011;72609;45.768;4.884;2023-11-18T14:09:19;2.95;;;1.63;;
82850;SDS011;72609;45.768;4.884;2023-11-18T14:11:46;3.80;;;1.40;;
82850;SDS011;72609;45.768;4.884;2023-11-18T14:14:13;2.83;;;1.40;;
82850;SDS011;72609;45.768;4.884;2023-11-18T14:16:40;2.17;;;1.23;;
82850;SDS011;72609;45.768;4.884;2023-11-18T14:19:06;2.08;;;1.00;;
82850;SDS011;72609;45.768;4.884;2023-11-18T14:21:32;2.45;;;1.00;;
82850;SDS011;72609;45.768;4.884;2023-11-18T14:23:58;4.18;;;1.20;;
82850;SDS011;72609;45.768;4.884;2023-11-18T14:26:27;2.58;;;1.30;;
82850;SDS011;72609;45.768;4.884;2023-11-18T14:28:54;4.60;;;1.25;;
82850;SDS011;72609;45.768;4.884;2023-11-18T14:31:20;2.75;;;1.40;;
82850;SDS011;72609;45.768;4.884;2023-11-18T14:33:50;2.92;;;1.30;;
82850;SDS011;72609;45.768;4.884;2023-11-18T14:36:16;2.25;;;1.48;;
82850;SDS011;72609;45.768;4.884;2023-11-18T14:38:42;2.88;;;1.88;;
82850;SDS011;72609;45.768;4.884;2023-11-18T14:41:09;2.50;;;1.83;;
82850;SDS011;72609;45.768;4.884;2023-11-18T14:43:35;3.50;;;1.80;;
82850;SDS011;72609;45.768;4.884;2023-11-18T14:46:02;3.80;;;1.35;;
82850;SDS011;72609;45.768;4.884;2023-11-18T14:48:29;2.55;;;1.10;;
82850;SDS011;72609;45.768;4.884;2023-11-18T14:50:55;3.97;;;2.20;;
82850;SDS011;72609;45.768;4.884;2023-11-18T14:53:22;3.47;;;1.80;;
82850;SDS011;72609;45.768;4.884;2023-11-18T14:55:48;2.97;;;2.25;;
82850;SDS011;72609;45.768;4.884;2023-11-18T14:58:14;2.35;;;1.55;;
82850;SDS011;72609;45.768;4.884;2023-11-18T15:00:40;5.35;;;2.03;;
82850;SDS011;72609;45.768;4.884;2023-11-18T15:03:07;4.43;;;2.00;;
82850;SDS011;72609;45.768;4.884;2023-11-18T15:05:33;3.17;;;1.35;;
82850;SDS011;72609;45.768;4.884;2023-11-18T15:08:00;3.63;;;1.52;;
82850;SDS011;72609;45.768;4.884;2023-11-18T15:10:26;3.97;;;1.42;;
82850;SDS011;72609;45.768;4.884;2023-11-18T15:12:53;3.28;;;1.45;;
82850;SDS011;72609;45.768;4.884;2023-11-18T15:15:22;2.45;;;1.50;;
82850;SDS011;72609;45.768;4.884;2023-11-18T15:17:55;2.88;;;1.60;;
82850;SDS011;72609;45.768;4.884;2023-11-18T15:20:23;2.80;;;1.65;;
82850;SDS011;72609;45.768;4.884;2023-11-18T15:22:49;2.95;;;1.60;;
82850;SDS011;72609;45.768;4.884;2023-11-18T15:25:15;3.72;;;1.55;;
82850;SDS011;72609;45.768;4.884;2023-11-18T15:27:45;3.42;;;1.80;;
82850;SDS011;72609;45.768;4.884;2023-11-18T15:30:15;2.72;;;1.30;;
82850;SDS011;72609;45.768;4.884;2023-11-18T15:32:42;3.67;;;1.70;;
82850;SDS011;72609;45.768;4.884;2023-11-18T15:35:08;3.38;;;1.42;;
82850;SDS011;72609;45.768;4.884;2023-11-18T15:40:01;5.38;;;1.73;;
82850;SDS011;72609;45.768;4.884;2023-11-18T15:45:01;3.20;;;1.92;;
82850;SDS011;72609;45.768;4.884;2023-11-18T15:47:28;4.10;;;1.80;;
82850;SDS011;72609;45.768;4.884;2023-11-18T15:49:54;2.80;;;1.50;;
82850;SDS011;72609;45.768;4.884;2023-11-18T15:52:20;3.05;;;1.63;;
82850;SDS011;72609;45.768;4.884;2023-11-18T15:54:46;2.63;;;1.63;;
82850;SDS011;72609;45.768;4.884;2023-11-18T15:57:12;4.63;;;1.92;;
82850;SDS011;72609;45.768;4.884;2023-11-18T15:59:38;4.35;;;1.80;;
82850;SDS011;72609;45.768;4.884;2023-11-18T16:02:04;3.90;;;1.98;;